Time;durP1;ratioP1;P1;durP2;ratioP2;P2;SDS_P1;SDS_P2;PMS_P1;PMS_P2;Temp;Humidity;BMP_temperature;BMP_pressure;BME280_temperature;BME280_humidity;BME280_pressure;Samples;Min_cycle;Max_cycle;Signal;HPM_P1;HPM_P2
2024/01/27 00:02:43;;;;;;;0.20;0.20;;;;;;;;;;6339376;28;20032;-81
2024/01/27 00:05:43;;;;;;;0.40;0.20;;;;;;;;;;6343858;28;20030;-81
2024/01/27 00:08:43;;;;;;;0.80;0.20;;;;;;;;;;6346086;28;20055;-82
2024/01/27 00:11:44;;;;;;;0.30;0.20;;;;;;;;;;6346443;28;20468;-82
2024/01/27 00:14:44;;;;;;;0.17;0.13;;;;;;;;;;6344845;28;20026;-82
2024/01/27 00:17:44;;;;;;;0.30;0.10;;;;;;;;;;6342366;28;20192;-82
2024/01/27 00:20:44;;;;;;;0.20;0.20;;;;;;;;;;6320931;28;20548;-82
2024/01/27 00:23:45;;;;;;;0.20;0.20;;;;;;;;;;6342087;28;20463;-82
2024/01/27 00:26:45;;;;;;;0.20;0.17;;;;;;;;;;6324093;28;20032;-82
2024/01/27 00:29:45;;;;;;;0.20;0.20;;;;;;;;;;6344607;28;22682;-82
2024/01/27 00:32:46;;;;;;;0.10;0.10;;;;;;;;;;6344172;28;20036;-82
2024/01/27 00:35:46;;;;;;;0.30;0.10;;;;;;;;;;6340837;28;20020;-83
2024/01/27 00:38:46;;;;;;;0.50;0.13;;;;;;;;;;6343306;28;20039;-82
2024/01/27 00:41:46;;;;;;;0.17;0.10;;;;;;;;;;6343268;28;20467;-82
2024/01/27 00:44:46;;;;;;;0.20;0.20;;;;;;;;;;6343617;28;20023;-82
2024/01/27 00:47:47;;;;;;;0.53;0.10;;;;;;;;;;6340975;28;20027;-81
2024/01/27 00:50:47;;;;;;;0.20;0.10;;;;;;;;;;6338868;28;20031;-81
2024/01/27 00:53:47;;;;;;;0.20;0.20;;;;;;;;;;6331367;28;20035;-80
2024/01/27 00:56:48;;;;;;;0.43;0.27;;;;;;;;;;6343462;28;20114;-80
2024/01/27 00:59:48;;;;;;;0.30;0.20;;;;;;;;;;6344445;28;20024;-80
2024/01/27 01:02:48;;;;;;;0.70;0.40;;;;;;;;;;6339166;28;21115;-79
2024/01/27 01:05:49;;;;;;;0.40;0.30;;;;;;;;;;6336593;28;20031;-81
2024/01/27 01:08:49;;;;;;;0.30;0.20;;;;;;;;;;6342648;28;20034;-80
2024/01/27 01:11:49;;;;;;;0.50;0.40;;;;;;;;;;6342974;28;20499;-80
2024/01/27 01:14:50;;;;;;;0.20;0.20;;;;;;;;;;6342841;28;20020;-80
2024/01/27 01:17:50;;;;;;;0.43;0.30;;;;;;;;;;6338869;27;20019;-81
2024/01/27 01:20:50;;;;;;;0.77;0.37;;;;;;;;;;6335084;28;20475;-80
2024/01/27 01:23:50;;;;;;;0.40;0.30;;;;;;;;;;6340715;28;20032;-80
2024/01/27 01:26:51;;;;;;;1.60;0.30;;;;;;;;;;6331173;28;20154;-80
2024/01/27 01:29:51;;;;;;;0.47;0.30;;;;;;;;;;6342759;28;20023;-80
2024/01/27 01:32:52;;;;;;;0.55;0.20;;;;;;;;;;6341500;28;20015;-80
2024/01/27 01:35:53;;;;;;;0.20;0.20;;;;;;;;;;6339559;28;20460;-80
2024/01/27 01:38:53;;;;;;;0.32;0.30;;;;;;;;;;6343538;28;20023;-80
2024/01/27 01:41:53;;;;;;;0.30;0.20;;;;;;;;;;6343025;28;20419;-80
2024/01/27 01:44:54;;;;;;;0.20;0.20;;;;;;;;;;6342304;28;20027;-80
2024/01/27 01:47:54;;;;;;;0.37;0.23;;;;;;;;;;6340164;28;20028;-80
2024/01/27 01:50:54;;;;;;;0.67;0.40;;;;;;;;;;6341249;28;20143;-80
2024/01/27 01:53:57;;;;;;;0.53;0.30;;;;;;;;;;6340631;28;20428;-80
2024/01/27 01:57:00;;;;;;;0.55;0.30;;;;;;;;;;6343517;28;20480;-80
2024/01/27 02:00:01;;;;;;;0.82;0.40;;;;;;;;;;6339121;28;20024;-80
2024/01/27 02:03:01;;;;;;;1.33;0.30;;;;;;;;;;6339542;28;20020;-81
2024/01/27 02:06:01;;;;;;;1.23;0.40;;;;;;;;;;6343303;28;20050;-80
2024/01/27 02:09:01;;;;;;;1.13;0.47;;;;;;;;;;6314999;28;20460;-81
2024/01/27 02:12:02;;;;;;;0.83;0.30;;;;;;;;;;6326132;28;20024;-81
2024/01/27 02:15:02;;;;;;;0.33;0.30;;;;;;;;;;6316003;28;20020;-80
2024/01/27 02:18:03;;;;;;;0.70;0.40;;;;;;;;;;6323803;28;20044;-81
2024/01/27 02:21:03;;;;;;;0.30;0.30;;;;;;;;;;6327940;28;20099;-80
2024/01/27 02:24:06;;;;;;;0.87;0.50;;;;;;;;;;6318773;28;20068;-80
2024/01/27 02:27:07;;;;;;;0.65;0.35;;;;;;;;;;6323256;28;20054;-81
2024/01/27 02:30:07;;;;;;;0.30;0.30;;;;;;;;;;6328611;28;20027;-80
2024/01/27 02:33:07;;;;;;;0.37;0.30;;;;;;;;;;6316093;28;20066;-81
2024/01/27 02:36:08;;;;;;;0.40;0.20;;;;;;;;;;6340529;28;20035;-80
2024/01/27 02:39:08;;;;;;;0.77;0.20;;;;;;;;;;6324651;28;20043;-81
2024/01/27 02:42:08;;;;;;;0.83;0.20;;;;;;;;;;6348128;28;20093;-81
2024/01/27 02:45:09;;;;;;;0.47;0.20;;;;;;;;;;6329025;28;21167;-80
2024/01/27 02:48:10;;;;;;;0.20;0.20;;;;;;;;;;6342177;28;20034;-81
2024/01/27 02:51:10;;;;;;;0.30;0.20;;;;;;;;;;6345779;28;20035;-80
2024/01/27 02:54:11;;;;;;;1.10;0.30;;;;;;;;;;6344139;28;20501;-80
2024/01/27 02:57:11;;;;;;;0.70;0.20;;;;;;;;;;6346080;28;20562;-80
2024/01/27 03:00:11;;;;;;;0.47;0.30;;;;;;;;;;6343269;28;20544;-80
2024/01/27 03:03:12;;;;;;;0.40;0.40;;;;;;;;;;6344858;28;20153;-80
2024/01/27 03:06:12;;;;;;;1.27;0.33;;;;;;;;;;6346279;28;20020;-81
2024/01/27 03:09:12;;;;;;;0.57;0.20;;;;;;;;;;6345689;28;20020;-81
2024/01/27 03:12:12;;;;;;;0.40;0.20;;;;;;;;;;6344989;28;20020;-81
2024/01/27 03:15:13;;;;;;;0.30;0.20;;;;;;;;;;6345204;28;20020;-79
2024/01/27 03:18:13;;;;;;;0.70;0.20;;;;;;;;;;6343696;28;20027;-81
2024/01/27 03:21:13;;;;;;;0.77;0.33;;;;;;;;;;6346277;28;20028;-80
2024/01/27 03:24:13;;;;;;;0.33;0.20;;;;;;;;;;6326178;28;20393;-81
2024/01/27 03:27:14;;;;;;;0.40;0.30;;;;;;;;;;6347564;28;20434;-81
2024/01/27 03:30:14;;;;;;;0.53;0.20;;;;;;;;;;6343725;28;20020;-81
2024/01/27 03:33:14;;;;;;;0.47;0.13;;;;;;;;;;6342670;28;20157;-81
2024/01/27 03:36:14;;;;;;;1.37;0.40;;;;;;;;;;6339840;28;20460;-80
2024/01/27 03:39:15;;;;;;;0.93;0.20;;;;;;;;;;6340092;28;20633;-80
2024/01/27 03:42:15;;;;;;;1.03;0.40;;;;;;;;;;6322234;28;20074;-80
2024/01/27 03:45:15;;;;;;;0.40;0.30;;;;;;;;;;6331294;28;20469;-80
2024/01/27 03:48:16;;;;;;;0.60;0.40;;;;;;;;;;6320479;28;20042;-80
2024/01/27 03:51:16;;;;;;;1.60;0.50;;;;;;;;;;6319831;28;20024;-80
2024/01/27 03:54:16;;;;;;;0.57;0.30;;;;;;;;;;6327065;28;20429;-80
2024/01/27 03:57:16;;;;;;;0.30;0.30;;;;;;;;;;6331137;28;21579;-81
2024/01/27 04:00:17;;;;;;;0.63;0.40;;;;;;;;;;6329337;28;20076;-80
2024/01/27 04:03:17;;;;;;;1.20;0.40;;;;;;;;;;6320036;28;20787;-80
2024/01/27 04:06:17;;;;;;;0.70;0.40;;;;;;;;;;6321747;28;20429;-80
2024/01/27 04:09:18;;;;;;;0.43;0.30;;;;;;;;;;6316659;28;20031;-80
2024/01/27 04:12:18;;;;;;;0.30;0.30;;;;;;;;;;6325020;28;20063;-80
2024/01/27 04:15:18;;;;;;;0.97;0.60;;;;;;;;;;6333655;28;20034;-80
2024/01/27 04:18:19;;;;;;;0.30;0.30;;;;;;;;;;6324573;28;20587;-79
2024/01/27 04:21:19;;;;;;;0.60;0.30;;;;;;;;;;6329113;28;20020;-80
2024/01/27 04:24:19;;;;;;;0.60;0.33;;;;;;;;;;6322971;28;20388;-80
2024/01/27 04:27:19;;;;;;;0.77;0.37;;;;;;;;;;6321438;28;20020;-80
2024/01/27 04:30:20;;;;;;;1.30;0.33;;;;;;;;;;6330334;28;20020;-80
2024/01/27 04:33:20;;;;;;;0.67;0.30;;;;;;;;;;6322434;28;20020;-81
2024/01/27 04:36:30;;;;;;;0.70;0.37;;;;;;;;;;6327819;28;20047;-80
2024/01/27 04:39:30;;;;;;;0.30;0.30;;;;;;;;;;6327528;28;20508;-81
2024/01/27 04:42:30;;;;;;;0.57;0.30;;;;;;;;;;6333501;28;20115;-81
2024/01/27 04:45:30;;;;;;;0.40;0.37;;;;;;;;;;6332121;28;21905;-81
2024/01/27 04:48:31;;;;;;;0.97;0.50;;;;;;;;;;6319057;28;20035;-81
2024/01/27 04:51:31;;;;;;;0.57;0.40;;;;;;;;;;6324251;28;20106;-79
2024/01/27 04:54:31;;;;;;;0.50;0.40;;;;;;;;;;6332892;28;20023;-81
2024/01/27 04:57:31;;;;;;;0.47;0.30;;;;;;;;;;6324757;28;20031;-81
2024/01/27 05:00:32;;;;;;;0.50;0.40;;;;;;;;;;6318599;28;20020;-81
2024/01/27 05:03:32;;;;;;;0.83;0.40;;;;;;;;;;6322148;28;20039;-81
2024/01/27 05:06:32;;;;;;;1.37;0.40;;;;;;;;;;6313868;28;20073;-81
2024/01/27 05:09:34;;;;;;;0.23;0.20;;;;;;;;;;6319762;28;20020;-81
2024/01/27 05:12:34;;;;;;;0.82;0.40;;;;;;;;;;6326778;28;20032;-81
2024/01/27 05:15:34;;;;;;;0.33;0.23;;;;;;;;;;6330296;28;20031;-81
2024/01/27 05:18:35;;;;;;;0.40;0.30;;;;;;;;;;6324131;28;20031;-82
2024/01/27 05:21:35;;;;;;;0.47;0.40;;;;;;;;;;6321976;28;20498;-81
2024/01/27 05:24:35;;;;;;;0.50;0.30;;;;;;;;;;6321860;28;20369;-81
2024/01/27 05:27:36;;;;;;;2.23;0.60;;;;;;;;;;6321193;28;20023;-83
2024/01/27 05:30:37;;;;;;;1.45;0.38;;;;;;;;;;6329976;28;20036;-83
2024/01/27 05:33:38;;;;;;;0.60;0.37;;;;;;;;;;6320890;28;20039;-83
2024/01/27 05:36:38;;;;;;;0.30;0.30;;;;;;;;;;6320681;28;20480;-83
2024/01/27 05:39:38;;;;;;;0.97;0.40;;;;;;;;;;6328258;28;20085;-84
2024/01/27 05:42:42;;;;;;;0.60;0.40;;;;;;;;;;6342583;28;20027;-83
2024/01/27 05:45:44;;;;;;;1.98;0.50;;;;;;;;;;6329642;28;20114;-82
2024/01/27 05:48:45;;;;;;;0.55;0.32;;;;;;;;;;6339783;28;20023;-83
2024/01/27 05:51:45;;;;;;;0.40;0.30;;;;;;;;;;6340207;28;20108;-84
2024/01/27 05:54:45;;;;;;;0.50;0.37;;;;;;;;;;6325016;28;20444;-83
2024/01/27 05:57:45;;;;;;;0.60;0.40;;;;;;;;;;6336022;28;20027;-84
2024/01/27 06:00:46;;;;;;;0.53;0.23;;;;;;;;;;6341529;28;20480;-81
2024/01/27 06:03:46;;;;;;;0.47;0.43;;;;;;;;;;6324427;28;20039;-83
2024/01/27 06:06:47;;;;;;;1.87;0.33;;;;;;;;;;6340921;28;20094;-82
2024/01/27 06:09:47;;;;;;;0.67;0.23;;;;;;;;;;6341017;28;20020;-81
2024/01/27 06:12:47;;;;;;;0.60;0.40;;;;;;;;;;6330473;28;20051;-84
2024/01/27 06:15:48;;;;;;;0.30;0.30;;;;;;;;;;6340070;28;20020;-84
2024/01/27 06:18:48;;;;;;;0.80;0.30;;;;;;;;;;6326938;28;20035;-83
2024/01/27 06:21:48;;;;;;;0.97;0.30;;;;;;;;;;6341525;28;20031;-83
2024/01/27 06:24:48;;;;;;;1.07;0.50;;;;;;;;;;6342999;28;20136;-83
2024/01/27 06:27:49;;;;;;;0.60;0.30;;;;;;;;;;6329985;28;20027;-82
2024/01/27 06:30:49;;;;;;;2.23;0.50;;;;;;;;;;6339019;28;20032;-82
2024/01/27 06:33:49;;;;;;;0.77;0.30;;;;;;;;;;6325412;28;20064;-82
2024/01/27 06:36:50;;;;;;;0.87;0.40;;;;;;;;;;6340437;28;20039;-83
2024/01/27 06:39:50;;;;;;;1.17;0.50;;;;;;;;;;6318124;28;20059;-85
2024/01/27 06:42:50;;;;;;;1.87;0.60;;;;;;;;;;6284644;28;20070;-83
2024/01/27 06:45:51;;;;;;;0.70;0.40;;;;;;;;;;6281705;28;20025;-83
2024/01/27 06:48:51;;;;;;;1.23;0.40;;;;;;;;;;6281706;28;20028;-84
2024/01/27 06:51:51;;;;;;;0.60;0.30;;;;;;;;;;6285371;28;20044;-85
2024/01/27 06:54:51;;;;;;;0.50;0.30;;;;;;;;;;6283867;28;20775;-84
2024/01/27 06:57:52;;;;;;;1.13;0.30;;;;;;;;;;6264291;28;20032;-84
2024/01/27 07:00:52;;;;;;;0.77;0.40;;;;;;;;;;6280315;28;20028;-84
2024/01/27 07:03:52;;;;;;;1.20;0.40;;;;;;;;;;6278605;28;20016;-84
2024/01/27 07:06:52;;;;;;;0.60;0.60;;;;;;;;;;6278467;28;20024;-84
2024/01/27 07:09:54;;;;;;;1.03;0.30;;;;;;;;;;6279748;28;20036;-83
2024/01/27 07:12:54;;;;;;;0.43;0.32;;;;;;;;;;6267603;28;20033;-84
2024/01/27 07:15:55;;;;;;;0.47;0.30;;;;;;;;;;6280000;28;20032;-84
2024/01/27 07:18:55;;;;;;;1.47;0.30;;;;;;;;;;6282686;28;20044;-84
2024/01/27 07:21:56;;;;;;;0.77;0.50;;;;;;;;;;6279123;28;20037;-84
2024/01/27 07:24:56;;;;;;;0.90;0.60;;;;;;;;;;6290558;28;20107;-84
2024/01/27 07:27:56;;;;;;;0.60;0.30;;;;;;;;;;6278181;28;20021;-84
2024/01/27 07:30:57;;;;;;;2.03;0.50;;;;;;;;;;6285022;28;20028;-84
2024/01/27 07:33:57;;;;;;;0.47;0.30;;;;;;;;;;6267529;28;20055;-84
2024/01/27 07:36:57;;;;;;;1.77;0.50;;;;;;;;;;6284577;28;20021;-83
2024/01/27 07:39:57;;;;;;;1.73;0.90;;;;;;;;;;6281227;28;20053;-83
2024/01/27 07:42:58;;;;;;;2.83;0.63;;;;;;;;;;6278167;28;20039;-82
2024/01/27 07:45:58;;;;;;;1.83;0.67;;;;;;;;;;6282143;28;20159;-83
2024/01/27 07:48:58;;;;;;;1.03;0.50;;;;;;;;;;6281557;28;20119;-83
2024/01/27 07:51:58;;;;;;;0.57;0.50;;;;;;;;;;6282608;28;20523;-84
2024/01/27 07:54:59;;;;;;;0.50;0.50;;;;;;;;;;6286930;28;20520;-83
2024/01/27 07:57:59;;;;;;;0.83;0.50;;;;;;;;;;6273826;28;20033;-86
2024/01/27 08:01:00;;;;;;;0.80;0.63;;;;;;;;;;6287250;28;20029;-86
2024/01/27 08:04:00;;;;;;;1.02;0.50;;;;;;;;;;6274176;28;20024;-86
2024/01/27 08:07:05;;;;;;;1.00;0.50;;;;;;;;;;6273524;28;20036;-86
2024/01/27 08:10:06;;;;;;;0.70;0.40;;;;;;;;;;6286253;28;20033;-83
2024/01/27 08:13:07;;;;;;;0.70;0.50;;;;;;;;;;6288002;28;20031;-82
2024/01/27 08:16:09;;;;;;;2.20;0.60;;;;;;;;;;6281621;28;20048;-85
2024/01/27 08:19:09;;;;;;;1.33;0.60;;;;;;;;;;6278520;28;20332;-86
2024/01/27 08:22:10;;;;;;;0.80;0.50;;;;;;;;;;6286737;28;20107;-80
2024/01/27 08:25:10;;;;;;;1.27;0.53;;;;;;;;;;6284710;28;20119;-81
2024/01/27 08:28:10;;;;;;;1.07;0.70;;;;;;;;;;6278701;28;20373;-81
2024/01/27 08:31:10;;;;;;;1.10;0.60;;;;;;;;;;6275997;28;20432;-82
2024/01/27 08:34:12;;;;;;;1.23;0.60;;;;;;;;;;6275403;28;20473;-81
2024/01/27 08:37:17;;;;;;;1.05;0.50;;;;;;;;;;6280075;28;20131;-80
2024/01/27 08:40:18;;;;;;;1.55;0.63;;;;;;;;;;6281187;28;20044;-81
2024/01/27 08:43:18;;;;;;;0.77;0.63;;;;;;;;;;6283808;28;20040;-82
2024/01/27 08:46:21;;;;;;;0.97;0.50;;;;;;;;;;6282818;28;20020;-84
2024/01/27 08:49:21;;;;;;;1.00;0.60;;;;;;;;;;6284401;28;20024;-81
2024/01/27 08:52:21;;;;;;;1.50;0.50;;;;;;;;;;6281463;28;20028;-81
2024/01/27 08:55:23;;;;;;;0.63;0.50;;;;;;;;;;6263015;28;20029;-84
2024/01/27 08:58:24;;;;;;;1.23;0.55;;;;;;;;;;6283984;28;20461;-82
2024/01/27 09:01:24;;;;;;;1.33;0.53;;;;;;;;;;6285206;28;21057;-82
2024/01/27 09:04:24;;;;;;;1.23;0.47;;;;;;;;;;6284733;28;20016;-78
2024/01/27 09:07:25;;;;;;;0.63;0.53;;;;;;;;;;6284531;28;20024;-77
2024/01/27 09:10:25;;;;;;;1.30;0.60;;;;;;;;;;6282552;28;20024;-82
2024/01/27 09:13:25;;;;;;;0.90;0.47;;;;;;;;;;6271958;28;20454;-80
2024/01/27 09:16:25;;;;;;;1.50;0.60;;;;;;;;;;6278811;28;20431;-81
2024/01/27 09:19:26;;;;;;;0.57;0.50;;;;;;;;;;6267833;28;20013;-81
2024/01/27 09:22:26;;;;;;;0.80;0.70;;;;;;;;;;6282592;28;20108;-75
2024/01/27 09:25:27;;;;;;;1.77;0.90;;;;;;;;;;6282107;28;20025;-76
2024/01/27 09:28:28;;;;;;;1.35;0.60;;;;;;;;;;6259768;28;20028;-76
2024/01/27 09:31:28;;;;;;;0.90;0.70;;;;;;;;;;6280888;28;20032;-76
2024/01/27 09:34:28;;;;;;;1.00;0.70;;;;;;;;;;6276894;28;20037;-80
2024/01/27 09:37:29;;;;;;;1.73;0.73;;;;;;;;;;6287409;28;20036;-81
2024/01/27 09:40:29;;;;;;;1.23;0.70;;;;;;;;;;6278616;28;20493;-81
2024/01/27 09:43:30;;;;;;;1.17;0.70;;;;;;;;;;6285962;28;20034;-81
2024/01/27 09:46:31;;;;;;;0.77;0.50;;;;;;;;;;6264510;28;20052;-81
2024/01/27 09:49:32;;;;;;;1.08;0.68;;;;;;;;;;6282848;28;20477;-82
2024/01/27 09:52:32;;;;;;;1.17;0.70;;;;;;;;;;6276744;28;20036;-81
2024/01/27 09:55:32;;;;;;;1.00;0.60;;;;;;;;;;6272522;28;20020;-81
2024/01/27 09:58:33;;;;;;;0.77;0.67;;;;;;;;;;6279689;28;20111;-81
2024/01/27 10:01:34;;;;;;;0.80;0.57;;;;;;;;;;6283610;28;20115;-81
2024/01/27 10:04:35;;;;;;;;;;;;;;;;;;6279813;28;20039;-81
2024/01/27 10:07:35;;;;;;;0.80;0.65;;;;;;;;;;6279647;28;19908;-80
2024/01/27 10:10:35;;;;;;;0.73;0.73;;;;;;;;;;6280163;28;20341;-81
2024/01/27 10:13:36;;;;;;;1.90;0.60;;;;;;;;;;6278449;28;20052;-79
2024/01/27 10:16:46;;;;;;;1.37;0.80;;;;;;;;;;6284083;28;20382;-81
2024/01/27 10:19:46;;;;;;;0.80;0.60;;;;;;;;;;6279535;28;20302;-81
2024/01/27 10:22:47;;;;;;;0.97;0.70;;;;;;;;;;6283848;28;20768;-79
2024/01/27 10:25:47;;;;;;;1.57;0.73;;;;;;;;;;6263606;28;20024;-80
2024/01/27 10:28:57;;;;;;;1.77;0.60;;;;;;;;;;6264945;28;20031;-81
2024/01/27 10:32:07;;;;;;;1.50;0.50;;;;;;;;;;6275105;28;20397;-81
2024/01/27 10:35:10;;;;;;;0.95;0.50;;;;;;;;;;6278055;28;20369;-81
2024/01/27 10:38:11;;;;;;;1.15;0.68;;;;;;;;;;6259371;28;20101;-79
2024/01/27 10:41:11;;;;;;;2.07;0.60;;;;;;;;;;6278555;28;20520;-79
2024/01/27 10:44:14;;;;;;;1.33;0.60;;;;;;;;;;6290598;28;20021;-79
2024/01/27 10:47:18;;;;;;;1.20;0.60;;;;;;;;;;6256671;28;20048;-79
2024/01/27 10:50:18;;;;;;;1.10;0.70;;;;;;;;;;6278757;28;20053;-79
2024/01/27 10:53:27;;;;;;;1.07;0.67;;;;;;;;;;6266260;28;20033;-80
2024/01/27 10:56:29;;;;;;;0.88;0.60;;;;;;;;;;6286068;28;20028;-80
2024/01/27 10:59:30;;;;;;;0.77;0.60;;;;;;;;;;6287142;28;20461;-79
2024/01/27 11:02:32;;;;;;;1.00;0.67;;;;;;;;;;6281640;28;20032;-80
2024/01/27 11:05:35;;;;;;;1.15;0.70;;;;;;;;;;6283666;28;20262;-82
2024/01/27 11:08:37;;;;;;;0.50;0.50;;;;;;;;;;6288301;28;20104;-82
2024/01/27 11:11:38;;;;;;;0.75;0.60;;;;;;;;;;6283969;28;20074;-80
2024/01/27 11:14:38;;;;;;;2.28;0.85;;;;;;;;;;6279748;28;20484;-82
2024/01/27 11:17:40;;;;;;;0.80;0.50;;;;;;;;;;6279556;28;20045;-81
2024/01/27 11:20:44;;;;;;;1.13;0.50;;;;;;;;;;6281830;28;20534;-81
2024/01/27 11:23:47;;;;;;;0.60;0.45;;;;;;;;;;6272846;28;20078;-82
2024/01/27 11:26:47;;;;;;;1.10;0.50;;;;;;;;;;6265599;28;20025;-81
2024/01/27 11:29:48;;;;;;;1.40;0.57;;;;;;;;;;6277575;28;20089;-82
2024/01/27 11:32:48;;;;;;;1.13;0.63;;;;;;;;;;6272838;28;20051;-81
2024/01/27 11:35:59;;;;;;;2.37;0.60;;;;;;;;;;6267316;28;20037;-81
2024/01/27 11:39:03;;;;;;;1.98;0.70;;;;;;;;;;6283551;28;20060;-81
2024/01/27 11:42:07;;;;;;;2.08;0.68;;;;;;;;;;6261747;28;20049;-82
2024/01/27 11:45:10;;;;;;;1.13;0.60;;;;;;;;;;6291600;28;20028;-82
2024/01/27 11:48:10;;;;;;;1.10;0.55;;;;;;;;;;6281362;28;20086;-81
2024/01/27 11:51:11;;;;;;;1.20;0.63;;;;;;;;;;6291753;28;20024;-81
2024/01/27 11:54:12;;;;;;;2.22;0.50;;;;;;;;;;6285960;28;20028;-84
2024/01/27 11:57:13;;;;;;;;;;;;;;;;;;6289306;28;20401;-83
2024/01/27 12:00:13;;;;;;;0.50;0.30;;;;;;;;;;6285964;28;19919;-83
2024/01/27 12:03:14;;;;;;;0.53;0.50;;;;;;;;;;6277060;28;20021;-84
2024/01/27 12:06:14;;;;;;;1.30;0.50;;;;;;;;;;6271297;28;20024;-82
2024/01/27 12:09:16;;;;;;;1.00;0.60;;;;;;;;;;6288267;28;20035;-83
2024/01/27 12:12:17;;;;;;;1.10;0.60;;;;;;;;;;6291165;28;20012;-87
2024/01/27 12:15:19;;;;;;;1.37;0.80;;;;;;;;;;6266101;28;20025;-84
2024/01/27 12:18:20;;;;;;;3.08;0.77;;;;;;;;;;6284513;28;20276;-82
2024/01/27 12:21:20;;;;;;;1.67;0.60;;;;;;;;;;6281123;28;20020;-78
2024/01/27 12:24:20;;;;;;;0.77;0.70;;;;;;;;;;6278241;28;20404;-79
2024/01/27 12:27:24;;;;;;;0.67;0.47;;;;;;;;;;6281484;28;20028;-79
2024/01/27 12:30:25;;;;;;;1.27;0.50;;;;;;;;;;6262677;28;20035;-82
2024/01/27 12:33:25;;;;;;;1.60;0.70;;;;;;;;;;6289236;28;20099;-81
2024/01/27 12:36:26;;;;;;;0.93;0.60;;;;;;;;;;6284303;28;20041;-82
2024/01/27 12:39:26;;;;;;;1.40;0.70;;;;;;;;;;6281081;28;20056;-82
2024/01/27 12:42:27;;;;;;;1.27;0.50;;;;;;;;;;6282732;28;20016;-81
2024/01/27 12:45:28;;;;;;;1.33;0.60;;;;;;;;;;6277043;28;20473;-82
2024/01/27 12:48:29;;;;;;;1.67;0.50;;;;;;;;;;6283031;28;20442;-83
2024/01/27 12:51:29;;;;;;;2.03;0.77;;;;;;;;;;6283390;28;20024;-85
2024/01/27 12:54:29;;;;;;;2.00;0.67;;;;;;;;;;6283092;28;20124;-85
2024/01/27 12:57:29;;;;;;;1.13;0.70;;;;;;;;;;6272271;28;20044;-85
2024/01/27 13:00:30;;;;;;;1.37;0.50;;;;;;;;;;6290811;28;20024;-84
2024/01/27 13:03:30;;;;;;;1.73;0.70;;;;;;;;;;6282577;28;20032;-84
2024/01/27 13:06:30;;;;;;;0.83;0.50;;;;;;;;;;6280103;28;20072;-85
2024/01/27 13:09:31;;;;;;;0.80;0.63;;;;;;;;;;6280347;28;20028;-84
2024/01/27 13:12:31;;;;;;;1.00;0.60;;;;;;;;;;6285783;28;20556;-85
2024/01/27 13:15:31;;;;;;;1.00;0.63;;;;;;;;;;6262207;28;20112;-81
2024/01/27 13:18:32;;;;;;;3.47;0.70;;;;;;;;;;6288546;28;20521;-77
2024/01/27 13:21:32;;;;;;;2.23;0.70;;;;;;;;;;6282444;28;20047;-77
2024/01/27 13:24:33;;;;;;;1.27;0.70;;;;;;;;;;6284033;28;20017;-77
2024/01/27 13:27:34;;;;;;;1.40;0.53;;;;;;;;;;6281092;28;20024;-78
2024/01/27 13:30:34;;;;;;;1.60;0.60;;;;;;;;;;6270085;28;20020;-78
2024/01/27 13:33:35;;;;;;;1.10;0.43;;;;;;;;;;6285287;28;20051;-78
2024/01/27 13:36:35;;;;;;;2.08;0.43;;;;;;;;;;6285795;28;20060;-77
2024/01/27 13:39:36;;;;;;;1.00;0.50;;;;;;;;;;6284183;28;20102;-77
2024/01/27 13:42:36;;;;;;;1.20;0.60;;;;;;;;;;6286888;28;20020;-78
2024/01/27 13:45:36;;;;;;;1.93;1.00;;;;;;;;;;6288724;28;20538;-77
2024/01/27 13:48:37;;;;;;;1.80;0.70;;;;;;;;;;6284845;28;20112;-78
2024/01/27 13:51:38;;;;;;;0.90;0.60;;;;;;;;;;6282782;28;20019;-78
2024/01/27 13:54:38;;;;;;;0.65;0.40;;;;;;;;;;6277785;28;20024;-78
2024/01/27 13:57:40;;;;;;;1.40;0.43;;;;;;;;;;6257783;28;20416;-78
2024/01/27 14:00:41;;;;;;;1.20;0.50;;;;;;;;;;6269253;28;20575;-78
2024/01/27 14:03:41;;;;;;;1.10;0.50;;;;;;;;;;6262076;28;20025;-78
2024/01/27 14:06:41;;;;;;;2.67;0.50;;;;;;;;;;6261163;28;20043;-78
2024/01/27 14:09:44;;;;;;;1.10;0.50;;;;;;;;;;6272639;28;20040;-78
2024/01/27 14:12:44;;;;;;;0.68;0.40;;;;;;;;;;6261129;28;20020;-78
2024/01/27 14:15:44;;;;;;;0.83;0.47;;;;;;;;;;6276286;28;20078;-78
2024/01/27 14:18:45;;;;;;;1.97;0.50;;;;;;;;;;6277083;28;20131;-78
2024/01/27 14:21:45;;;;;;;0.70;0.40;;;;;;;;;;6283465;28;20465;-78
2024/01/27 14:24:45;;;;;;;0.93;0.43;;;;;;;;;;6284377;28;20025;-78
2024/01/27 14:27:46;;;;;;;0.80;0.40;;;;;;;;;;6289177;28;20024;-77
2024/01/27 14:30:46;;;;;;;0.40;0.40;;;;;;;;;;6288769;28;20385;-78
2024/01/27 14:33:46;;;;;;;1.20;0.60;;;;;;;;;;6287121;28;20481;-78
2024/01/27 14:36:47;;;;;;;1.70;0.60;;;;;;;;;;6267738;28;20033;-78
2024/01/27 14:39:48;;;;;;;1.00;0.53;;;;;;;;;;6286968;28;20048;-79
2024/01/27 14:42:49;;;;;;;2.00;0.57;;;;;;;;;;6272302;28;20370;-78
2024/01/27 14:45:50;;;;;;;0.73;0.40;;;;;;;;;;6281339;28;20033;-78
2024/01/27 14:48:50;;;;;;;0.50;0.50;;;;;;;;;;6265993;28;20083;-78
2024/01/27 14:51:51;;;;;;;0.70;0.67;;;;;;;;;;6281229;28;20028;-78
2024/01/27 14:54:51;;;;;;;1.63;0.50;;;;;;;;;;6284750;28;20104;-78
2024/01/27 14:57:51;;;;;;;1.03;0.83;;;;;;;;;;6263486;28;20033;-80
2024/01/27 15:00:52;;;;;;;0.80;0.60;;;;;;;;;;6285668;28;20032;-80
2024/01/27 15:03:52;;;;;;;0.73;0.60;;;;;;;;;;6283603;28;20028;-79
2024/01/27 15:06:56;;;;;;;0.57;0.50;;;;;;;;;;6285423;28;20163;-80
2024/01/27 15:09:57;;;;;;;0.90;0.47;;;;;;;;;;6280637;28;20478;-80
2024/01/27 15:12:58;;;;;;;1.40;0.53;;;;;;;;;;6260948;28;20031;-79
2024/01/27 15:15:58;;;;;;;1.40;0.55;;;;;;;;;;6290405;28;20027;-79
2024/01/27 15:18:59;;;;;;;0.80;0.50;;;;;;;;;;6268705;28;20452;-79
2024/01/27 15:22:00;;;;;;;1.20;0.50;;;;;;;;;;6272013;28;20032;-79
2024/01/27 15:25:00;;;;;;;0.90;0.50;;;;;;;;;;6286672;28;20490;-79
2024/01/27 15:28:01;;;;;;;0.93;0.53;;;;;;;;;;6286403;28;20078;-80
2024/01/27 15:31:01;;;;;;;2.60;0.70;;;;;;;;;;6294186;28;20032;-79
2024/01/27 15:34:02;;;;;;;0.50;0.50;;;;;;;;;;6287835;28;20130;-79
2024/01/27 15:37:03;;;;;;;;;;;;;;;;;;6280236;28;20127;-80
2024/01/27 15:40:03;;;;;;;1.80;0.30;;;;;;;;;;6271107;28;20281;-79
2024/01/27 15:43:04;;;;;;;0.83;0.57;;;;;;;;;;6280684;28;20013;-79
2024/01/27 15:46:06;;;;;;;1.10;0.63;;;;;;;;;;6287677;28;20024;-79
2024/01/27 15:49:07;;;;;;;1.20;0.60;;;;;;;;;;6284305;28;20792;-79
2024/01/27 15:52:07;;;;;;;0.70;0.50;;;;;;;;;;6281841;28;20076;-79
2024/01/27 15:55:08;;;;;;;0.50;0.40;;;;;;;;;;6283231;28;20028;-79
2024/01/27 15:58:09;;;;;;;3.00;0.60;;;;;;;;;;6288575;28;20024;-80
2024/01/27 16:01:09;;;;;;;1.00;0.55;;;;;;;;;;6280101;28;20029;-79
2024/01/27 16:04:09;;;;;;;1.43;0.50;;;;;;;;;;6280625;28;20031;-79
2024/01/27 16:07:10;;;;;;;1.03;0.60;;;;;;;;;;6267603;28;20021;-77
2024/01/27 16:10:10;;;;;;;0.53;0.40;;;;;;;;;;6286684;28;20064;-78
2024/01/27 16:13:10;;;;;;;1.83;0.50;;;;;;;;;;6288006;28;20461;-78
2024/01/27 16:16:11;;;;;;;1.93;0.50;;;;;;;;;;6274357;28;20410;-78
2024/01/27 16:19:11;;;;;;;0.87;0.57;;;;;;;;;;6279841;28;20033;-77
2024/01/27 16:22:12;;;;;;;1.83;0.60;;;;;;;;;;6272719;28;20074;-77
2024/01/27 16:25:12;;;;;;;0.70;0.47;;;;;;;;;;6281077;28;20017;-81
2024/01/27 16:28:12;;;;;;;1.83;0.50;;;;;;;;;;6286356;28;20032;-81
2024/01/27 16:31:12;;;;;;;1.87;0.60;;;;;;;;;;6286009;28;20024;-80
2024/01/27 16:34:13;;;;;;;2.37;0.67;;;;;;;;;;6277412;28;20020;-82
2024/01/27 16:37:13;;;;;;;2.43;0.70;;;;;;;;;;6261335;28;20517;-80
2024/01/27 16:40:14;;;;;;;1.33;0.57;;;;;;;;;;6287862;28;20052;-82
2024/01/27 16:43:14;;;;;;;2.03;0.63;;;;;;;;;;6268284;28;20037;-79
2024/01/27 16:46:14;;;;;;;1.07;0.63;;;;;;;;;;6281119;28;20029;-84
2024/01/27 16:49:15;;;;;;;0.90;0.60;;;;;;;;;;6284707;28;20052;-82
2024/01/27 16:52:15;;;;;;;1.80;0.60;;;;;;;;;;6268461;28;20416;-81
2024/01/27 16:55:15;;;;;;;1.07;0.60;;;;;;;;;;6285782;28;20021;-82
2024/01/27 16:58:15;;;;;;;0.73;0.50;;;;;;;;;;6280480;28;20053;-83
2024/01/27 17:01:16;;;;;;;1.00;0.40;;;;;;;;;;6280597;28;20090;-82
2024/01/27 17:04:16;;;;;;;1.47;0.70;;;;;;;;;;6276573;28;20032;-83
2024/01/27 17:07:16;;;;;;;1.23;0.60;;;;;;;;;;6279106;28;20462;-82
2024/01/27 17:10:17;;;;;;;1.43;0.63;;;;;;;;;;6282982;28;20377;-81
2024/01/27 17:13:17;;;;;;;2.13;0.63;;;;;;;;;;6291891;28;20032;-81
2024/01/27 17:16:17;;;;;;;2.10;0.70;;;;;;;;;;6272218;28;20046;-86
2024/01/27 17:19:17;;;;;;;1.10;0.50;;;;;;;;;;6289400;28;20389;-83
2024/01/27 17:22:18;;;;;;;1.27;0.70;;;;;;;;;;6291352;28;20024;-82
2024/01/27 17:25:18;;;;;;;1.87;0.70;;;;;;;;;;6290437;28;20029;-83
2024/01/27 17:28:18;;;;;;;1.77;0.57;;;;;;;;;;6277839;28;20914;-84
2024/01/27 17:31:18;;;;;;;1.07;0.67;;;;;;;;;;6295627;28;20071;-83
2024/01/27 17:34:20;;;;;;;1.63;0.57;;;;;;;;;;6270166;28;20028;-83
2024/01/27 17:37:21;;;;;;;1.92;0.60;;;;;;;;;;6289839;28;20028;-83
2024/01/27 17:40:23;;;;;;;6.83;1.10;;;;;;;;;;6294591;28;20067;-83
2024/01/27 17:43:24;;;;;;;2.28;1.33;;;;;;;;;;6293988;28;20039;-83
2024/01/27 17:46:26;;;;;;;1.60;1.07;;;;;;;;;;6286164;28;20064;-85
2024/01/27 17:49:27;;;;;;;1.38;0.60;;;;;;;;;;6290577;28;20029;-81
2024/01/27 17:52:27;;;;;;;3.07;0.70;;;;;;;;;;6288955;28;20043;-80
2024/01/27 17:55:27;;;;;;;1.03;0.63;;;;;;;;;;6294717;28;20469;-82
2024/01/27 17:58:27;;;;;;;1.27;0.70;;;;;;;;;;6285572;28;20078;-80
2024/01/27 18:01:28;;;;;;;2.07;0.50;;;;;;;;;;6274314;28;20016;-82
2024/01/27 18:04:28;;;;;;;1.70;0.60;;;;;;;;;;6292159;28;20115;-79